sensor_id;sensor_type;location;lat;lon;timestamp;P1;durP1;ratioP1;P2;durP2;ratioP2
17564;SDS011;62994;52.126;5.596;2023-12-22T00:02:10;8.75;;;1.70;;
17564;SDS011;62994;52.126;5.596;2023-12-22T00:04:37;10.75;;;2.85;;
17564;SDS011;62994;52.126;5.596;2023-12-22T00:07:05;10.90;;;1.90;;
17564;SDS011;62994;52.126;5.596;2023-12-22T00:09:37;11.25;;;1.75;;
17564;SDS011;62994;52.126;5.596;2023-12-22T00:12:04;10.88;;;2.35;;
17564;SDS011;62994;52.126;5.596;2023-12-22T00:14:31;7.10;;;1.88;;
17564;SDS011;62994;52.126;5.596;2023-12-22T00:16:59;1.60;;;1.33;;
17564;SDS011;62994;52.126;5.596;2023-12-22T00:19:27;3.78;;;1.10;;
17564;SDS011;62994;52.126;5.596;2023-12-22T00:21:54;2.63;;;1.23;;
17564;SDS011;62994;52.126;5.596;2023-12-22T00:24:23;6.45;;;1.60;;
17564;SDS011;62994;52.126;5.596;2023-12-22T00:26:50;3.65;;;0.93;;
17564;SDS011;62994;52.126;5.596;2023-12-22T00:29:17;5.45;;;1.00;;
17564;SDS011;62994;52.126;5.596;2023-12-22T00:31:45;1.67;;;1.10;;
17564;SDS011;62994;52.126;5.596;2023-12-22T00:34:12;3.72;;;1.58;;
17564;SDS011;62994;52.126;5.596;2023-12-22T00:36:46;5.65;;;1.23;;
17564;SDS011;62994;52.126;5.596;2023-12-22T00:39:13;6.10;;;1.20;;
17564;SDS011;62994;52.126;5.596;2023-12-22T00:41:40;7.90;;;1.20;;
17564;SDS011;62994;52.126;5.596;2023-12-22T00:44:07;5.88;;;1.30;;
17564;SDS011;62994;52.126;5.596;2023-12-22T00:46:34;6.65;;;1.65;;
17564;SDS011;62994;52.126;5.596;2023-12-22T00:49:01;6.43;;;1.50;;
17564;SDS011;62994;52.126;5.596;2023-12-22T00:51:29;3.33;;;1.33;;
17564;SDS011;62994;52.126;5.596;2023-12-22T00:53:57;3.35;;;1.20;;
17564;SDS011;62994;52.126;5.596;2023-12-22T00:56:24;8.23;;;2.03;;
17564;SDS011;62994;52.126;5.596;2023-12-22T00:58:56;6.40;;;1.20;;
17564;SDS011;62994;52.126;5.596;2023-12-22T01:01:23;3.60;;;1.30;;
17564;SDS011;62994;52.126;5.596;2023-12-22T01:03:52;4.40;;;1.13;;
17564;SDS011;62994;52.126;5.596;2023-12-22T01:06:21;5.43;;;1.35;;
17564;SDS011;62994;52.126;5.596;2023-12-22T01:11:20;2.50;;;1.27;;
17564;SDS011;62994;52.126;5.596;2023-12-22T01:13:47;4.18;;;1.45;;
17564;SDS011;62994;52.126;5.596;2023-12-22T01:16:14;5.88;;;1.30;;
17564;SDS011;62994;52.126;5.596;2023-12-22T01:18:43;5.22;;;1.70;;
17564;SDS011;62994;52.126;5.596;2023-12-22T01:21:10;4.10;;;1.42;;
17564;SDS011;62994;52.126;5.596;2023-12-22T01:23:37;5.35;;;1.73;;
17564;SDS011;62994;52.126;5.596;2023-12-22T01:26:03;7.82;;;1.58;;
17564;SDS011;62994;52.126;5.596;2023-12-22T01:28:33;4.45;;;1.02;;
17564;SDS011;62994;52.126;5.596;2023-12-22T01:30:59;2.42;;;0.98;;
17564;SDS011;62994;52.126;5.596;2023-12-22T01:33:26;4.57;;;1.20;;
17564;SDS011;62994;52.126;5.596;2023-12-22T01:35:54;2.38;;;1.02;;
17564;SDS011;62994;52.126;5.596;2023-12-22T01:38:21;6.00;;;1.27;;
17564;SDS011;62994;52.126;5.596;2023-12-22T01:40:48;8.52;;;1.55;;
17564;SDS011;62994;52.126;5.596;2023-12-22T01:43:15;3.20;;;1.00;;
17564;SDS011;62994;52.126;5.596;2023-12-22T01:45:48;5.50;;;1.00;;
17564;SDS011;62994;52.126;5.596;2023-12-22T01:48:15;5.90;;;1.20;;
17564;SDS011;62994;52.126;5.596;2023-12-22T01:50:43;3.47;;;1.38;;
17564;SDS011;62994;52.126;5.596;2023-12-22T01:53:10;3.35;;;1.55;;
17564;SDS011;62994;52.126;5.596;2023-12-22T01:55:37;3.55;;;1.13;;
17564;SDS011;62994;52.126;5.596;2023-12-22T01:58:04;6.47;;;1.60;;
17564;SDS011;62994;52.126;5.596;2023-12-22T02:00:31;6.80;;;1.77;;
17564;SDS011;62994;52.126;5.596;2023-12-22T02:03:00;6.60;;;1.85;;
17564;SDS011;62994;52.126;5.596;2023-12-22T02:05:27;2.65;;;1.42;;
17564;SDS011;62994;52.126;5.596;2023-12-22T02:07:54;5.65;;;1.42;;
17564;SDS011;62994;52.126;5.596;2023-12-22T02:10:21;11.25;;;1.77;;
17564;SDS011;62994;52.126;5.596;2023-12-22T02:12:48;6.72;;;1.75;;
17564;SDS011;62994;52.126;5.596;2023-12-22T02:15:15;4.00;;;1.50;;
17564;SDS011;62994;52.126;5.596;2023-12-22T02:17:43;9.80;;;1.60;;
17564;SDS011;62994;52.126;5.596;2023-12-22T02:20:15;6.68;;;2.03;;
17564;SDS011;62994;52.126;5.596;2023-12-22T02:22:44;9.00;;;2.00;;
17564;SDS011;62994;52.126;5.596;2023-12-22T02:25:11;8.57;;;1.70;;
17564;SDS011;62994;52.126;5.596;2023-12-22T02:27:40;6.38;;;1.70;;
17564;SDS011;62994;52.126;5.596;2023-12-22T02:30:14;13.20;;;1.80;;
17564;SDS011;62994;52.126;5.596;2023-12-22T02:32:59;8.43;;;2.30;;
17564;SDS011;62994;52.126;5.596;2023-12-22T02:35:28;9.20;;;1.60;;
17564;SDS011;62994;52.126;5.596;2023-12-22T02:37:58;8.15;;;1.70;;
17564;SDS011;62994;52.126;5.596;2023-12-22T02:40:26;9.98;;;2.25;;
17564;SDS011;62994;52.126;5.596;2023-12-22T02:42:54;9.50;;;2.33;;
17564;SDS011;62994;52.126;5.596;2023-12-22T02:45:21;10.25;;;2.22;;
17564;SDS011;62994;52.126;5.596;2023-12-22T02:47:48;11.70;;;2.70;;
17564;SDS011;62994;52.126;5.596;2023-12-22T02:50:15;12.38;;;2.40;;
17564;SDS011;62994;52.126;5.596;2023-12-22T02:52:43;8.93;;;2.03;;
17564;SDS011;62994;52.126;5.596;2023-12-22T02:55:11;16.92;;;2.78;;
17564;SDS011;62994;52.126;5.596;2023-12-22T02:57:38;9.95;;;2.35;;
17564;SDS011;62994;52.126;5.596;2023-12-22T03:00:06;10.77;;;2.50;;
17564;SDS011;62994;52.126;5.596;2023-12-22T03:02:33;20.38;;;3.00;;
17564;SDS011;62994;52.126;5.596;2023-12-22T03:05:00;9.25;;;2.10;;
17564;SDS011;62994;52.126;5.596;2023-12-22T03:07:27;5.07;;;0.98;;
17564;SDS011;62994;52.126;5.596;2023-12-22T03:09:54;6.47;;;1.50;;
17564;SDS011;62994;52.126;5.596;2023-12-22T03:12:23;5.75;;;1.40;;
17564;SDS011;62994;52.126;5.596;2023-12-22T03:14:49;8.43;;;1.67;;
17564;SDS011;62994;52.126;5.596;2023-12-22T03:17:17;8.55;;;1.75;;
17564;SDS011;62994;52.126;5.596;2023-12-22T03:19:43;4.00;;;1.20;;
17564;SDS011;62994;52.126;5.596;2023-12-22T03:22:10;8.43;;;1.75;;
17564;SDS011;62994;52.126;5.596;2023-12-22T03:24:37;3.50;;;1.10;;
17564;SDS011;62994;52.126;5.596;2023-12-22T03:27:04;1.63;;;1.00;;
17564;SDS011;62994;52.126;5.596;2023-12-22T03:29:33;2.35;;;1.15;;
17564;SDS011;62994;52.126;5.596;2023-12-22T03:32:00;5.35;;;1.17;;
17564;SDS011;62994;52.126;5.596;2023-12-22T03:34:27;7.97;;;0.90;;
17564;SDS011;62994;52.126;5.596;2023-12-22T03:36:54;3.92;;;1.00;;
17564;SDS011;62994;52.126;5.596;2023-12-22T03:39:20;3.95;;;1.30;;
17564;SDS011;62994;52.126;5.596;2023-12-22T03:41:47;3.50;;;0.88;;
17564;SDS011;62994;52.126;5.596;2023-12-22T03:44:14;2.50;;;1.30;;
17564;SDS011;62994;52.126;5.596;2023-12-22T03:46:42;5.47;;;1.40;;
17564;SDS011;62994;52.126;5.596;2023-12-22T03:49:09;4.22;;;1.30;;
17564;SDS011;62994;52.126;5.596;2023-12-22T03:51:36;2.50;;;1.00;;
17564;SDS011;62994;52.126;5.596;2023-12-22T03:54:06;5.45;;;1.17;;
17564;SDS011;62994;52.126;5.596;2023-12-22T03:56:33;3.08;;;1.35;;
17564;SDS011;62994;52.126;5.596;2023-12-22T03:59:00;4.90;;;1.10;;
17564;SDS011;62994;52.126;5.596;2023-12-22T04:01:27;2.63;;;1.13;;
17564;SDS011;62994;52.126;5.596;2023-12-22T04:03:55;3.28;;;0.85;;
17564;SDS011;62994;52.126;5.596;2023-12-22T04:06:22;3.05;;;1.10;;
17564;SDS011;62994;52.126;5.596;2023-12-22T04:08:49;2.83;;;1.05;;
17564;SDS011;62994;52.126;5.596;2023-12-22T04:11:16;2.97;;;1.02;;
17564;SDS011;62994;52.126;5.596;2023-12-22T04:13:43;10.13;;;1.27;;
17564;SDS011;62994;52.126;5.596;2023-12-22T04:16:12;7.70;;;1.15;;
17564;SDS011;62994;52.126;5.596;2023-12-22T04:18:39;5.38;;;1.50;;
17564;SDS011;62994;52.126;5.596;2023-12-22T04:21:08;6.53;;;1.40;;
17564;SDS011;62994;52.126;5.596;2023-12-22T04:23:35;9.27;;;1.92;;
17564;SDS011;62994;52.126;5.596;2023-12-22T04:26:02;5.25;;;1.90;;
17564;SDS011;62994;52.126;5.596;2023-12-22T04:28:29;9.52;;;1.85;;
17564;SDS011;62994;52.126;5.596;2023-12-22T04:30:56;5.88;;;2.22;;
17564;SDS011;62994;52.126;5.596;2023-12-22T04:33:23;5.28;;;1.50;;
17564;SDS011;62994;52.126;5.596;2023-12-22T04:35:50;9.60;;;2.95;;
17564;SDS011;62994;52.126;5.596;2023-12-22T04:38:19;14.25;;;2.60;;
17564;SDS011;62994;52.126;5.596;2023-12-22T04:40:45;12.43;;;2.50;;
17564;SDS011;62994;52.126;5.596;2023-12-22T04:43:12;7.72;;;1.58;;
17564;SDS011;62994;52.126;5.596;2023-12-22T04:45:39;6.35;;;1.75;;
17564;SDS011;62994;52.126;5.596;2023-12-22T04:48:06;4.68;;;1.65;;
17564;SDS011;62994;52.126;5.596;2023-12-22T04:50:33;6.75;;;1.90;;
17564;SDS011;62994;52.126;5.596;2023-12-22T04:53:00;12.40;;;1.98;;
17564;SDS011;62994;52.126;5.596;2023-12-22T04:55:29;9.50;;;2.22;;
17564;SDS011;62994;52.126;5.596;2023-12-22T04:57:56;8.38;;;2.03;;
17564;SDS011;62994;52.126;5.596;2023-12-22T05:00:22;11.88;;;2.15;;
17564;SDS011;62994;52.126;5.596;2023-12-22T05:02:50;19.80;;;2.47;;
17564;SDS011;62994;52.126;5.596;2023-12-22T05:05:17;6.22;;;1.98;;
17564;SDS011;62994;52.126;5.596;2023-12-22T05:07:44;12.45;;;1.75;;
17564;SDS011;62994;52.126;5.596;2023-12-22T05:10:11;16.00;;;2.38;;
17564;SDS011;62994;52.126;5.596;2023-12-22T05:12:39;11.50;;;2.28;;
17564;SDS011;62994;52.126;5.596;2023-12-22T05:15:06;11.65;;;2.15;;
17564;SDS011;62994;52.126;5.596;2023-12-22T05:17:34;11.32;;;3.05;;
17564;SDS011;62994;52.126;5.596;2023-12-22T05:20:01;8.43;;;2.70;;
17564;SDS011;62994;52.126;5.596;2023-12-22T05:22:28;8.00;;;2.47;;
17564;SDS011;62994;52.126;5.596;2023-12-22T05:24:57;14.98;;;2.63;;
17564;SDS011;62994;52.126;5.596;2023-12-22T05:27:26;9.60;;;2.38;;
17564;SDS011;62994;52.126;5.596;2023-12-22T05:29:55;6.22;;;2.20;;
17564;SDS011;62994;52.126;5.596;2023-12-22T05:32:26;7.30;;;1.65;;
17564;SDS011;62994;52.126;5.596;2023-12-22T05:34:53;11.18;;;2.55;;
17564;SDS011;62994;52.126;5.596;2023-12-22T05:37:20;6.35;;;2.00;;
17564;SDS011;62994;52.126;5.596;2023-12-22T05:39:47;7.13;;;1.55;;
17564;SDS011;62994;52.126;5.596;2023-12-22T05:42:14;11.52;;;2.33;;
17564;SDS011;62994;52.126;5.596;2023-12-22T05:44:41;8.70;;;2.10;;
17564;SDS011;62994;52.126;5.596;2023-12-22T05:47:09;12.35;;;2.10;;
17564;SDS011;62994;52.126;5.596;2023-12-22T05:49:39;9.00;;;1.90;;
17564;SDS011;62994;52.126;5.596;2023-12-22T05:52:07;10.15;;;2.50;;
17564;SDS011;62994;52.126;5.596;2023-12-22T05:54:34;9.13;;;2.72;;
17564;SDS011;62994;52.126;5.596;2023-12-22T05:57:00;12.07;;;2.72;;
17564;SDS011;62994;52.126;5.596;2023-12-22T05:59:30;10.48;;;3.28;;
17564;SDS011;62994;52.126;5.596;2023-12-22T06:01:57;13.15;;;2.38;;
17564;SDS011;62994;52.126;5.596;2023-12-22T06:04:26;13.68;;;2.38;;
17564;SDS011;62994;52.126;5.596;2023-12-22T06:06:53;11.90;;;2.92;;
17564;SDS011;62994;52.126;5.596;2023-12-22T06:09:20;8.90;;;2.70;;
17564;SDS011;62994;52.126;5.596;2023-12-22T06:11:47;7.93;;;1.77;;
17564;SDS011;62994;52.126;5.596;2023-12-22T06:14:14;11.32;;;2.40;;
17564;SDS011;62994;52.126;5.596;2023-12-22T06:16:41;7.07;;;1.92;;
17564;SDS011;62994;52.126;5.596;2023-12-22T06:19:08;10.00;;;2.40;;
17564;SDS011;62994;52.126;5.596;2023-12-22T06:21:38;5.43;;;1.98;;
17564;SDS011;62994;52.126;5.596;2023-12-22T06:24:06;13.35;;;2.00;;
17564;SDS011;62994;52.126;5.596;2023-12-22T06:26:36;9.77;;;1.88;;
17564;SDS011;62994;52.126;5.596;2023-12-22T06:29:02;8.85;;;2.00;;
17564;SDS011;62994;52.126;5.596;2023-12-22T06:31:29;11.13;;;2.03;;
17564;SDS011;62994;52.126;5.596;2023-12-22T06:33:56;8.45;;;2.45;;
17564;SDS011;62994;52.126;5.596;2023-12-22T06:36:27;5.78;;;2.20;;
17564;SDS011;62994;52.126;5.596;2023-12-22T06:38:56;13.73;;;2.40;;
17564;SDS011;62994;52.126;5.596;2023-12-22T06:41:24;12.70;;;2.30;;
17564;SDS011;62994;52.126;5.596;2023-12-22T06:43:52;9.40;;;2.53;;
17564;SDS011;62994;52.126;5.596;2023-12-22T06:46:19;8.48;;;2.20;;
17564;SDS011;62994;52.126;5.596;2023-12-22T06:48:47;12.60;;;2.88;;
17564;SDS011;62994;52.126;5.596;2023-12-22T06:51:18;8.50;;;2.20;;
17564;SDS011;62994;52.126;5.596;2023-12-22T06:53:45;6.95;;;2.83;;
17564;SDS011;62994;52.126;5.596;2023-12-22T06:56:17;14.32;;;2.97;;
17564;SDS011;62994;52.126;5.596;2023-12-22T06:58:45;14.70;;;2.90;;
17564;SDS011;62994;52.126;5.596;2023-12-22T07:01:17;19.25;;;3.15;;
17564;SDS011;62994;52.126;5.596;2023-12-22T07:03:45;12.85;;;2.42;;
17564;SDS011;62994;52.126;5.596;2023-12-22T07:06:13;11.98;;;2.55;;
17564;SDS011;62994;52.126;5.596;2023-12-22T07:08:40;9.63;;;2.50;;
17564;SDS011;62994;52.126;5.596;2023-12-22T07:11:08;15.43;;;2.70;;
17564;SDS011;62994;52.126;5.596;2023-12-22T07:13:37;18.55;;;3.17;;
17564;SDS011;62994;52.126;5.596;2023-12-22T07:16:05;13.48;;;2.53;;
17564;SDS011;62994;52.126;5.596;2023-12-22T07:18:32;15.32;;;3.03;;
17564;SDS011;62994;52.126;5.596;2023-12-22T07:21:00;16.02;;;2.70;;
17564;SDS011;62994;52.126;5.596;2023-12-22T07:23:27;14.77;;;3.38;;
17564;SDS011;62994;52.126;5.596;2023-12-22T07:25:54;17.33;;;3.15;;
17564;SDS011;62994;52.126;5.596;2023-12-22T07:28:21;13.95;;;3.38;;
17564;SDS011;62994;52.126;5.596;2023-12-22T07:30:50;20.92;;;3.25;;
17564;SDS011;62994;52.126;5.596;2023-12-22T07:33:19;12.07;;;2.58;;
17564;SDS011;62994;52.126;5.596;2023-12-22T07:35:46;13.45;;;3.60;;
17564;SDS011;62994;52.126;5.596;2023-12-22T07:38:13;13.38;;;3.47;;
17564;SDS011;62994;52.126;5.596;2023-12-22T07:40:40;22.27;;;3.72;;
17564;SDS011;62994;52.126;5.596;2023-12-22T07:43:07;11.52;;;3.67;;
17564;SDS011;62994;52.126;5.596;2023-12-22T07:45:35;18.17;;;3.60;;
17564;SDS011;62994;52.126;5.596;2023-12-22T07:48:04;21.55;;;4.35;;
17564;SDS011;62994;52.126;5.596;2023-12-22T07:50:32;17.67;;;3.78;;
17564;SDS011;62994;52.126;5.596;2023-12-22T07:52:59;16.88;;;3.78;;
17564;SDS011;62994;52.126;5.596;2023-12-22T07:55:26;18.80;;;3.78;;
17564;SDS011;62994;52.126;5.596;2023-12-22T07:57:53;21.40;;;4.25;;
17564;SDS011;62994;52.126;5.596;2023-12-22T08:00:20;24.08;;;3.60;;
17564;SDS011;62994;52.126;5.596;2023-12-22T08:02:47;13.77;;;3.35;;
17564;SDS011;62994;52.126;5.596;2023-12-22T08:05:15;13.77;;;3.00;;
17564;SDS011;62994;52.126;5.596;2023-12-22T08:07:42;14.88;;;2.90;;
17564;SDS011;62994;52.126;5.596;2023-12-22T08:10:09;10.85;;;2.60;;
17564;SDS011;62994;52.126;5.596;2023-12-22T08:12:36;3.92;;;1.95;;
17564;SDS011;62994;52.126;5.596;2023-12-22T08:15:04;8.60;;;2.30;;
17564;SDS011;62994;52.126;5.596;2023-12-22T08:17:32;12.00;;;3.40;;
17564;SDS011;62994;52.126;5.596;2023-12-22T08:20:00;7.47;;;2.08;;
17564;SDS011;62994;52.126;5.596;2023-12-22T08:22:28;10.32;;;2.42;;
17564;SDS011;62994;52.126;5.596;2023-12-22T08:24:55;12.93;;;2.85;;
17564;SDS011;62994;52.126;5.596;2023-12-22T08:27:22;18.60;;;3.53;;
17564;SDS011;62994;52.126;5.596;2023-12-22T08:29:49;13.88;;;3.28;;
17564;SDS011;62994;52.126;5.596;2023-12-22T08:32:16;12.77;;;3.10;;
17564;SDS011;62994;52.126;5.596;2023-12-22T08:34:44;21.95;;;3.47;;
17564;SDS011;62994;52.126;5.596;2023-12-22T08:37:16;13.50;;;3.92;;
17564;SDS011;62994;52.126;5.596;2023-12-22T08:39:45;16.88;;;3.30;;
17564;SDS011;62994;52.126;5.596;2023-12-22T08:42:12;15.60;;;3.45;;
17564;SDS011;62994;52.126;5.596;2023-12-22T08:44:39;14.15;;;3.28;;
17564;SDS011;62994;52.126;5.596;2023-12-22T08:47:06;18.77;;;3.28;;
17564;SDS011;62994;52.126;5.596;2023-12-22T08:49:33;15.23;;;3.30;;
17564;SDS011;62994;52.126;5.596;2023-12-22T08:52:00;21.90;;;3.58;;
17564;SDS011;62994;52.126;5.596;2023-12-22T08:54:28;17.55;;;2.50;;
17564;SDS011;62994;52.126;5.596;2023-12-22T08:56:57;8.43;;;2.83;;
17564;SDS011;62994;52.126;5.596;2023-12-22T08:59:24;4.40;;;2.20;;
17564;SDS011;62994;52.126;5.596;2023-12-22T09:01:51;8.80;;;2.17;;
17564;SDS011;62994;52.126;5.596;2023-12-22T09:04:18;10.77;;;2.67;;
17564;SDS011;62994;52.126;5.596;2023-12-22T09:06:47;10.68;;;2.38;;
17564;SDS011;62994;52.126;5.596;2023-12-22T09:09:14;11.35;;;2.67;;
17564;SDS011;62994;52.126;5.596;2023-12-22T09:11:41;11.93;;;2.40;;
17564;SDS011;62994;52.126;5.596;2023-12-22T09:14:09;15.75;;;3.30;;
17564;SDS011;62994;52.126;5.596;2023-12-22T09:16:37;13.57;;;2.97;;
17564;SDS011;62994;52.126;5.596;2023-12-22T09:19:04;16.73;;;3.00;;
17564;SDS011;62994;52.126;5.596;2023-12-22T09:21:32;11.90;;;3.70;;
17564;SDS011;62994;52.126;5.596;2023-12-22T09:23:58;9.38;;;3.00;;
17564;SDS011;62994;52.126;5.596;2023-12-22T09:26:25;7.10;;;2.75;;
17564;SDS011;62994;52.126;5.596;2023-12-22T09:28:53;10.23;;;2.65;;
17564;SDS011;62994;52.126;5.596;2023-12-22T09:31:22;11.15;;;2.50;;
17564;SDS011;62994;52.126;5.596;2023-12-22T09:33:49;16.33;;;2.60;;
17564;SDS011;62994;52.126;5.596;2023-12-22T09:36:16;14.75;;;3.20;;
17564;SDS011;62994;52.126;5.596;2023-12-22T09:38:43;4.50;;;1.90;;
17564;SDS011;62994;52.126;5.596;2023-12-22T09:41:10;5.32;;;1.83;;
17564;SDS011;62994;52.126;5.596;2023-12-22T09:43:37;4.20;;;1.42;;
17564;SDS011;62994;52.126;5.596;2023-12-22T09:46:06;2.40;;;1.13;;
17564;SDS011;62994;52.126;5.596;2023-12-22T09:48:36;2.67;;;0.93;;
17564;SDS011;62994;52.126;5.596;2023-12-22T09:51:05;2.28;;;0.85;;
17564;SDS011;62994;52.126;5.596;2023-12-22T09:53:33;2.80;;;1.08;;
17564;SDS011;62994;52.126;5.596;2023-12-22T09:56:02;1.90;;;0.93;;
17564;SDS011;62994;52.126;5.596;2023-12-22T09:58:28;2.53;;;1.30;;
17564;SDS011;62994;52.126;5.596;2023-12-22T10:00:55;5.07;;;1.10;;
17564;SDS011;62994;52.126;5.596;2023-12-22T10:03:24;1.35;;;0.90;;
17564;SDS011;62994;52.126;5.596;2023-12-22T10:05:53;5.93;;;1.27;;
17564;SDS011;62994;52.126;5.596;2023-12-22T10:08:20;1.38;;;1.27;;
17564;SDS011;62994;52.126;5.596;2023-12-22T10:10:49;2.13;;;1.10;;
17564;SDS011;62994;52.126;5.596;2023-12-22T10:13:17;5.28;;;1.30;;
17564;SDS011;62994;52.126;5.596;2023-12-22T10:15:45;1.98;;;1.60;;
17564;SDS011;62994;52.126;5.596;2023-12-22T10:18:13;4.93;;;1.77;;
17564;SDS011;62994;52.126;5.596;2023-12-22T10:20:41;5.55;;;2.08;;
17564;SDS011;62994;52.126;5.596;2023-12-22T10:23:10;8.80;;;1.90;;
17564;SDS011;62994;52.126;5.596;2023-12-22T10:25:37;5.03;;;2.10;;
17564;SDS011;62994;52.126;5.596;2023-12-22T10:28:09;6.75;;;1.50;;
17564;SDS011;62994;52.126;5.596;2023-12-22T10:30:38;4.75;;;1.40;;
17564;SDS011;62994;52.126;5.596;2023-12-22T10:33:07;6.22;;;1.52;;
17564;SDS011;62994;52.126;5.596;2023-12-22T10:35:34;4.85;;;1.52;;
17564;SDS011;62994;52.126;5.596;2023-12-22T10:38:01;8.18;;;2.00;;
17564;SDS011;62994;52.126;5.596;2023-12-22T10:40:31;6.75;;;1.83;;
17564;SDS011;62994;52.126;5.596;2023-12-22T10:42:58;8.35;;;1.63;;
17564;SDS011;62994;52.126;5.596;2023-12-22T10:45:26;3.35;;;1.75;;
17564;SDS011;62994;52.126;5.596;2023-12-22T10:47:56;6.85;;;1.75;;
17564;SDS011;62994;52.126;5.596;2023-12-22T10:50:24;3.85;;;1.73;;
17564;SDS011;62994;52.126;5.596;2023-12-22T10:52:51;5.45;;;1.77;;
17564;SDS011;62994;52.126;5.596;2023-12-22T10:55:19;7.80;;;2.17;;
17564;SDS011;62994;52.126;5.596;2023-12-22T10:57:47;6.35;;;1.60;;
17564;SDS011;62994;52.126;5.596;2023-12-22T11:00:15;6.85;;;1.63;;
17564;SDS011;62994;52.126;5.596;2023-12-22T11:02:42;6.53;;;1.80;;
17564;SDS011;62994;52.126;5.596;2023-12-22T11:05:13;6.32;;;1.65;;
17564;SDS011;62994;52.126;5.596;2023-12-22T11:07:43;5.93;;;1.52;;
17564;SDS011;62994;52.126;5.596;2023-12-22T11:10:17;3.92;;;1.40;;
17564;SDS011;62994;52.126;5.596;2023-12-22T11:12:48;4.07;;;1.33;;
17564;SDS011;62994;52.126;5.596;2023-12-22T11:15:16;6.03;;;1.90;;
17564;SDS011;62994;52.126;5.596;2023-12-22T11:17:45;7.97;;;2.10;;
17564;SDS011;62994;52.126;5.596;2023-12-22T11:20:14;6.95;;;1.80;;
17564;SDS011;62994;52.126;5.596;2023-12-22T11:22:42;2.65;;;1.25;;
17564;SDS011;62994;52.126;5.596;2023-12-22T11:25:09;3.08;;;1.45;;
17564;SDS011;62994;52.126;5.596;2023-12-22T11:27:37;10.77;;;2.10;;
17564;SDS011;62994;52.126;5.596;2023-12-22T11:30:06;10.30;;;1.65;;
17564;SDS011;62994;52.126;5.596;2023-12-22T11:32:35;5.63;;;1.85;;
17564;SDS011;62994;52.126;5.596;2023-12-22T11:35:02;3.60;;;1.58;;
17564;SDS011;62994;52.126;5.596;2023-12-22T11:37:32;16.90;;;2.55;;
17564;SDS011;62994;52.126;5.596;2023-12-22T11:40:02;2.20;;;1.10;;
17564;SDS011;62994;52.126;5.596;2023-12-22T11:42:31;9.85;;;2.15;;
17564;SDS011;62994;52.126;5.596;2023-12-22T11:45:06;4.93;;;1.70;;
17564;SDS011;62994;52.126;5.596;2023-12-22T11:47:37;5.35;;;1.38;;
17564;SDS011;62994;52.126;5.596;2023-12-22T11:50:07;4.15;;;1.92;;
17564;SDS011;62994;52.126;5.596;2023-12-22T11:52:35;10.57;;;1.70;;
17564;SDS011;62994;52.126;5.596;2023-12-22T11:55:04;7.88;;;2.20;;
17564;SDS011;62994;52.126;5.596;2023-12-22T11:57:32;8.45;;;1.80;;
17564;SDS011;62994;52.126;5.596;2023-12-22T12:00:01;6.65;;;1.63;;
17564;SDS011;62994;52.126;5.596;2023-12-22T12:02:32;5.43;;;1.77;;
17564;SDS011;62994;52.126;5.596;2023-12-22T12:05:01;9.98;;;2.22;;
17564;SDS011;62994;52.126;5.596;2023-12-22T12:07:38;6.15;;;1.30;;
17564;SDS011;62994;52.126;5.596;2023-12-22T12:10:10;4.00;;;1.17;;
17564;SDS011;62994;52.126;5.596;2023-12-22T12:12:39;3.85;;;1.48;;
17564;SDS011;62994;52.126;5.596;2023-12-22T12:15:07;5.78;;;1.50;;
17564;SDS011;62994;52.126;5.596;2023-12-22T12:17:40;6.72;;;1.92;;
17564;SDS011;62994;52.126;5.596;2023-12-22T12:20:08;5.55;;;1.23;;
17564;SDS011;62994;52.126;5.596;2023-12-22T12:22:36;5.90;;;1.67;;
17564;SDS011;62994;52.126;5.596;2023-12-22T12:25:07;4.80;;;1.63;;
17564;SDS011;62994;52.126;5.596;2023-12-22T12:27:34;5.47;;;1.40;;
17564;SDS011;62994;52.126;5.596;2023-12-22T12:30:07;4.18;;;1.40;;
17564;SDS011;62994;52.126;5.596;2023-12-22T12:32:40;3.85;;;1.83;;
17564;SDS011;62994;52.126;5.596;2023-12-22T12:35:10;7.10;;;1.25;;
17564;SDS011;62994;52.126;5.596;2023-12-22T12:37:37;4.75;;;1.08;;
17564;SDS011;62994;52.126;5.596;2023-12-22T12:40:05;5.65;;;1.40;;
17564;SDS011;62994;52.126;5.596;2023-12-22T12:42:37;5.35;;;1.17;;
17564;SDS011;62994;52.126;5.596;2023-12-22T12:45:04;4.97;;;1.17;;
17564;SDS011;62994;52.126;5.596;2023-12-22T12:47:32;5.85;;;1.60;;
17564;SDS011;62994;52.126;5.596;2023-12-22T12:50:00;4.10;;;1.15;;
17564;SDS011;62994;52.126;5.596;2023-12-22T12:52:28;6.20;;;1.48;;
17564;SDS011;62994;52.126;5.596;2023-12-22T12:54:55;4.85;;;1.60;;
17564;SDS011;62994;52.126;5.596;2023-12-22T12:57:23;4.93;;;1.30;;
17564;SDS011;62994;52.126;5.596;2023-12-22T12:59:50;8.57;;;1.48;;
17564;SDS011;62994;52.126;5.596;2023-12-22T13:02:18;11.15;;;2.53;;
17564;SDS011;62994;52.126;5.596;2023-12-22T13:04:45;2.38;;;1.35;;
17564;SDS011;62994;52.126;5.596;2023-12-22T13:07:14;11.00;;;1.77;;
17564;SDS011;62994;52.126;5.596;2023-12-22T13:09:50;7.20;;;2.47;;
17564;SDS011;62994;52.126;5.596;2023-12-22T13:12:19;6.10;;;1.27;;
17564;SDS011;62994;52.126;5.596;2023-12-22T13:14:46;6.95;;;1.75;;
17564;SDS011;62994;52.126;5.596;2023-12-22T13:17:14;5.93;;;1.48;;
17564;SDS011;62994;52.126;5.596;2023-12-22T13:19:42;4.05;;;1.40;;
17564;SDS011;62994;52.126;5.596;2023-12-22T13:22:09;11.15;;;2.00;;
17564;SDS011;62994;52.126;5.596;2023-12-22T13:24:37;6.60;;;1.83;;
17564;SDS011;62994;52.126;5.596;2023-12-22T13:27:04;3.95;;;1.25;;
17564;SDS011;62994;52.126;5.596;2023-12-22T13:29:41;5.07;;;1.73;;
17564;SDS011;62994;52.126;5.596;2023-12-22T13:32:14;8.27;;;1.67;;
17564;SDS011;62994;52.126;5.596;2023-12-22T13:34:46;4.63;;;1.40;;
17564;SDS011;62994;52.126;5.596;2023-12-22T13:37:16;9.02;;;1.40;;
17564;SDS011;62994;52.126;5.596;2023-12-22T13:39:45;7.85;;;2.65;;
17564;SDS011;62994;52.126;5.596;2023-12-22T13:42:15;5.85;;;1.55;;
17564;SDS011;62994;52.126;5.596;2023-12-22T13:44:44;4.00;;;1.90;;
17564;SDS011;62994;52.126;5.596;2023-12-22T13:47:12;6.50;;;1.60;;
17564;SDS011;62994;52.126;5.596;2023-12-22T13:49:40;4.07;;;1.65;;
17564;SDS011;62994;52.126;5.596;2023-12-22T13:52:08;4.03;;;1.23;;
17564;SDS011;62994;52.126;5.596;2023-12-22T13:54:51;6.72;;;1.80;;
17564;SDS011;62994;52.126;5.596;2023-12-22T13:57:21;7.20;;;1.65;;
17564;SDS011;62994;52.126;5.596;2023-12-22T13:59:49;10.13;;;1.30;;
17564;SDS011;62994;52.126;5.596;2023-12-22T14:02:18;6.03;;;1.35;;
17564;SDS011;62994;52.126;5.596;2023-12-22T14:04:45;4.45;;;1.60;;
17564;SDS011;62994;52.126;5.596;2023-12-22T14:07:12;5.22;;;1.33;;
17564;SDS011;62994;52.126;5.596;2023-12-22T14:09:39;2.90;;;1.50;;
17564;SDS011;62994;52.126;5.596;2023-12-22T14:12:07;8.48;;;1.60;;
17564;SDS011;62994;52.126;5.596;2023-12-22T14:14:34;4.32;;;1.20;;
17564;SDS011;62994;52.126;5.596;2023-12-22T14:17:01;4.13;;;1.52;;
17564;SDS011;62994;52.126;5.596;2023-12-22T14:19:29;5.07;;;1.60;;
17564;SDS011;62994;52.126;5.596;2023-12-22T14:21:55;9.35;;;1.52;;
17564;SDS011;62994;52.126;5.596;2023-12-22T14:24:22;5.28;;;1.90;;
17564;SDS011;62994;52.126;5.596;2023-12-22T14:26:53;8.80;;;1.60;;
17564;SDS011;62994;52.126;5.596;2023-12-22T14:29:22;5.00;;;2.03;;
17564;SDS011;62994;52.126;5.596;2023-12-22T14:31:49;4.97;;;1.70;;
17564;SDS011;62994;52.126;5.596;2023-12-22T14:34:17;8.27;;;1.55;;
17564;SDS011;62994;52.126;5.596;2023-12-22T14:36:43;6.05;;;2.22;;
17564;SDS011;62994;52.126;5.596;2023-12-22T14:39:10;9.57;;;2.00;;
17564;SDS011;62994;52.126;5.596;2023-12-22T14:41:38;8.35;;;1.75;;
17564;SDS011;62994;52.126;5.596;2023-12-22T14:44:07;7.28;;;2.20;;
17564;SDS011;62994;52.126;5.596;2023-12-22T14:46:38;8.05;;;2.20;;
17564;SDS011;62994;52.126;5.596;2023-12-22T14:49:05;9.15;;;2.03;;
17564;SDS011;62994;52.126;5.596;2023-12-22T14:51:34;9.95;;;2.05;;